Time;durP1;ratioP1;P1;durP2;ratioP2;P2;SDS_P1;SDS_P2;PMS_P1;PMS_P2;Temp;Humidity;BMP_temperature;BMP_pressure;BME280_temperature;BME280_humidity;BME280_pressure;Samples;Min_cycle;Max_cycle;Signal;HPM_P1;HPM_P2
2021/11/01 00:06:08;;;;;;;2.53;1.50;;;;;;;;;;4615397;30;20072;-82
2021/11/01 00:09:02;;;;;;;2.97;1.65;;;;;;;;;;4612492;30;20111;-82
2021/11/01 00:12:06;;;;;;;1.73;1.50;;;;;;;;;;4622535;31;20047;-82
2021/11/01 00:15:30;;;;;;;2.08;1.73;;;;;;;;;;4627612;30;20040;-82
2021/11/01 00:17:58;;;;;;;3.35;1.77;;;;;;;;;;4605550;31;20135;-81
2021/11/01 00:20:24;;;;;;;3.53;2.10;;;;;;;;;;4602859;31;20083;-81
2021/11/01 00:22:50;;;;;;;4.28;2.08;;;;;;;;;;4619051;30;20077;-81
2021/11/01 00:28:39;;;;;;;3.72;2.10;;;;;;;;;;4659250;30;20467;-81
2021/11/01 00:31:08;;;;;;;3.75;2.42;;;;;;;;;;4681652;30;20049;-81
2021/11/01 00:33:44;;;;;;;3.20;2.40;;;;;;;;;;4716650;30;20049;-82
2021/11/01 00:36:10;;;;;;;4.93;2.40;;;;;;;;;;4748740;30;20056;-81
2021/11/01 00:38:36;;;;;;;2.80;2.47;;;;;;;;;;4786827;30;20047;-81
2021/11/01 00:41:02;;;;;;;4.55;2.58;;;;;;;;;;4815020;29;20073;-81
2021/11/01 00:43:28;;;;;;;3.55;2.55;;;;;;;;;;4825895;29;20038;-80
2021/11/01 00:45:54;;;;;;;3.58;2.70;;;;;;;;;;4874629;29;20052;-81
2021/11/01 00:48:20;;;;;;;2.55;2.25;;;;;;;;;;4880769;29;20044;-81
2021/11/01 00:50:46;;;;;;;2.97;1.75;;;;;;;;;;4871673;29;20117;-81
2021/11/01 00:53:14;;;;;;;3.72;2.00;;;;;;;;;;4857404;29;20045;-81
2021/11/01 00:55:49;;;;;;;4.97;2.53;;;;;;;;;;4870705;29;20067;-81
2021/11/01 00:58:20;;;;;;;2.38;1.98;;;;;;;;;;4885091;29;20033;-82
2021/11/01 01:00:46;;;;;;;2.33;2.10;;;;;;;;;;4883651;29;20037;-81
2021/11/01 01:03:14;;;;;;;3.50;2.40;;;;;;;;;;4882146;29;20056;-82
2021/11/01 01:05:42;;;;;;;5.55;2.53;;;;;;;;;;4884661;29;20029;-81
2021/11/01 01:08:13;;;;;;;4.28;2.38;;;;;;;;;;4880300;29;20033;-81
2021/11/01 01:10:40;;;;;;;4.60;2.72;;;;;;;;;;4884383;29;20045;-81
2021/11/01 01:13:05;;;;;;;4.28;2.80;;;;;;;;;;4868092;29;20064;-81
2021/11/01 01:15:38;;;;;;;6.45;2.78;;;;;;;;;;4869101;29;20033;-81
2021/11/01 01:18:11;;;;;;;5.75;2.72;;;;;;;;;;4869473;29;20062;-81
2021/11/01 01:20:41;;;;;;;7.50;3.13;;;;;;;;;;4874923;29;20025;-81
2021/11/01 01:23:07;;;;;;;4.95;2.90;;;;;;;;;;4879569;29;20021;-81
2021/11/01 01:25:59;;;;;;;4.97;3.15;;;;;;;;;;4869813;29;20037;-82
2021/11/01 01:28:55;;;;;;;4.78;3.00;;;;;;;;;;4835735;29;20083;-82
2021/11/01 01:31:22;;;;;;;3.78;2.60;;;;;;;;;;4851916;29;20034;-82
2021/11/01 01:33:48;;;;;;;4.40;2.80;;;;;;;;;;4866395;29;20029;-81
2021/11/01 01:36:13;;;;;;;5.95;2.70;;;;;;;;;;4880988;29;20036;-81
2021/11/01 01:38:39;;;;;;;3.38;1.65;;;;;;;;;;4865185;29;20029;-80
2021/11/01 01:41:18;;;;;;;2.05;0.73;;;;;;;;;;4877694;29;20036;-81
2021/11/01 01:43:52;;;;;;;2.58;0.80;;;;;;;;;;4868193;29;20040;-80
2021/11/01 01:46:19;;;;;;;2.22;0.73;;;;;;;;;;4863240;29;20427;-80
2021/11/01 01:48:44;;;;;;;0.80;0.50;;;;;;;;;;4879728;29;20032;-81
2021/11/01 01:51:10;;;;;;;3.10;0.70;;;;;;;;;;4863188;29;20029;-80
2021/11/01 01:53:36;;;;;;;6.53;1.08;;;;;;;;;;4868487;29;20128;-81
2021/11/01 01:56:03;;;;;;;1.00;0.60;;;;;;;;;;4868058;29;20169;-80
2021/11/01 01:58:31;;;;;;;2.58;0.98;;;;;;;;;;4877862;29;20103;-80
2021/11/01 02:01:12;;;;;;;0.68;0.50;;;;;;;;;;4879864;29;20128;-81
2021/11/01 02:03:40;;;;;;;1.70;0.75;;;;;;;;;;4880557;29;20041;-80
2021/11/01 02:06:05;;;;;;;0.50;0.50;;;;;;;;;;4878427;29;20037;-81
2021/11/01 02:08:37;;;;;;;2.17;0.63;;;;;;;;;;4875180;29;20383;-81
2021/11/01 02:11:14;;;;;;;2.63;0.70;;;;;;;;;;4874191;29;20097;-82
2021/11/01 02:13:44;;;;;;;3.63;0.80;;;;;;;;;;4881511;29;20135;-81
2021/11/01 02:16:11;;;;;;;1.95;0.75;;;;;;;;;;4882449;29;20033;-81
2021/11/01 02:18:38;;;;;;;3.75;0.85;;;;;;;;;;4865168;29;20044;-81
2021/11/01 02:21:42;;;;;;;1.40;0.60;;;;;;;;;;4880496;29;20041;-82
2021/11/01 02:24:18;;;;;;;2.55;0.60;;;;;;;;;;4867577;29;20033;-81
2021/11/01 02:26:44;;;;;;;1.98;0.70;;;;;;;;;;4862274;29;20021;-82
2021/11/01 02:29:10;;;;;;;1.45;0.60;;;;;;;;;;4869939;29;20033;-81
2021/11/01 02:31:38;;;;;;;2.58;0.90;;;;;;;;;;4868713;29;20037;-82
2021/11/01 02:34:04;;;;;;;6.38;1.10;;;;;;;;;;4869632;29;20036;-81
2021/11/01 02:36:33;;;;;;;1.23;0.50;;;;;;;;;;4887238;29;20479;-82
2021/11/01 02:39:01;;;;;;;1.92;0.82;;;;;;;;;;4886018;29;20402;-81
2021/11/01 02:41:31;;;;;;;1.77;0.80;;;;;;;;;;4875665;29;20029;-81
2021/11/01 02:44:05;;;;;;;1.70;0.90;;;;;;;;;;4876953;29;20034;-81
2021/11/01 02:46:31;;;;;;;2.42;0.70;;;;;;;;;;4856680;29;20025;-82
2021/11/01 02:49:03;;;;;;;2.13;0.90;;;;;;;;;;4887543;29;20035;-81
2021/11/01 02:51:30;;;;;;;1.60;0.80;;;;;;;;;;4871470;29;20047;-81
2021/11/01 02:53:58;;;;;;;2.70;0.63;;;;;;;;;;4880982;29;20037;-81
2021/11/01 02:56:24;;;;;;;1.23;0.60;;;;;;;;;;4882809;29;20037;-81
2021/11/01 02:58:51;;;;;;;2.60;0.80;;;;;;;;;;4876955;29;20041;-81
2021/11/01 03:01:18;;;;;;;1.13;0.50;;;;;;;;;;4876505;29;20037;-81
2021/11/01 03:03:44;;;;;;;1.15;0.60;;;;;;;;;;4883154;29;20037;-80
2021/11/01 03:06:12;;;;;;;0.65;0.50;;;;;;;;;;4880342;29;20048;-81
2021/11/01 03:08:38;;;;;;;3.92;0.80;;;;;;;;;;4862357;29;20093;-80
2021/11/01 03:11:05;;;;;;;0.98;0.70;;;;;;;;;;4871030;29;20120;-81
2021/11/01 03:13:32;;;;;;;1.50;0.68;;;;;;;;;;4881484;29;20052;-81
2021/11/01 03:16:03;;;;;;;1.40;0.63;;;;;;;;;;4855416;29;20025;-81
2021/11/01 03:18:52;;;;;;;2.53;1.00;;;;;;;;;;4884875;29;20055;-81
2021/11/01 03:21:21;;;;;;;1.55;0.70;;;;;;;;;;4864329;29;20053;-81
2021/11/01 03:23:55;;;;;;;2.38;0.90;;;;;;;;;;4886319;29;20033;-81
2021/11/01 03:26:23;;;;;;;3.08;0.80;;;;;;;;;;4875865;29;20112;-81
2021/11/01 03:28:55;;;;;;;1.48;0.70;;;;;;;;;;4851333;29;20410;-82
2021/11/01 03:31:23;;;;;;;4.00;0.75;;;;;;;;;;4852193;29;20097;-82
2021/11/01 03:33:51;;;;;;;2.08;0.77;;;;;;;;;;4880338;29;20554;-82
2021/11/01 03:36:17;;;;;;;1.23;0.65;;;;;;;;;;4885535;29;20033;-81
2021/11/01 03:38:44;;;;;;;1.83;0.82;;;;;;;;;;4883948;29;20096;-82
2021/11/01 03:41:11;;;;;;;4.68;1.00;;;;;;;;;;4868905;29;20041;-81
2021/11/01 03:43:52;;;;;;;2.90;1.13;;;;;;;;;;4867028;29;20041;-81
2021/11/01 03:46:26;;;;;;;4.40;1.00;;;;;;;;;;4858373;29;20045;-82
2021/11/01 03:48:55;;;;;;;1.45;0.82;;;;;;;;;;4883513;29;20082;-82
2021/11/01 03:54:06;;;;;;;2.08;0.95;;;;;;;;;;4876976;29;20516;-81
2021/11/01 03:56:33;;;;;;;2.28;0.82;;;;;;;;;;4884712;29;20060;-80
2021/11/01 03:58:59;;;;;;;1.63;0.90;;;;;;;;;;4882546;29;20104;-81
2021/11/01 04:01:24;;;;;;;1.13;0.80;;;;;;;;;;4867070;29;20025;-81
2021/11/01 04:03:50;;;;;;;2.10;0.80;;;;;;;;;;4868669;29;20069;-81
2021/11/01 04:06:18;;;;;;;2.05;0.70;;;;;;;;;;4869812;29;20047;-82
2021/11/01 04:08:44;;;;;;;2.92;0.75;;;;;;;;;;4872872;29;20077;-82
2021/11/01 04:11:11;;;;;;;3.08;0.90;;;;;;;;;;4868854;29;20025;-82
2021/11/01 04:13:44;;;;;;;2.17;1.10;;;;;;;;;;4856142;29;20619;-81
2021/11/01 04:16:25;;;;;;;2.92;1.08;;;;;;;;;;4870720;29;20044;-82
2021/11/01 04:19:05;;;;;;;3.38;0.90;;;;;;;;;;4841722;29;20120;-82
2021/11/01 04:21:55;;;;;;;3.00;0.90;;;;;;;;;;4886937;29;20042;-81
2021/11/01 04:24:36;;;;;;;2.50;0.95;;;;;;;;;;4881026;29;20085;-82
2021/11/01 04:27:02;;;;;;;2.40;0.90;;;;;;;;;;4870648;29;20511;-82
2021/11/01 04:29:33;;;;;;;3.25;0.75;;;;;;;;;;4872092;29;20033;-82
2021/11/01 04:32:10;;;;;;;1.93;0.70;;;;;;;;;;4887576;29;20097;-82
2021/11/01 04:34:39;;;;;;;0.82;0.60;;;;;;;;;;4857009;29;20330;-82
2021/11/01 04:37:06;;;;;;;1.10;0.75;;;;;;;;;;4870450;29;20033;-82
2021/11/01 04:53:31;;;;;;;1.08;0.70;;;;;;;;;;4814383;29;20069;-82
2021/11/01 04:56:01;;;;;;;1.27;0.70;;;;;;;;;;4812012;29;20043;-82
2021/11/01 04:58:28;;;;;;;1.52;0.70;;;;;;;;;;4809758;29;20039;-82
2021/11/01 05:00:54;;;;;;;1.63;0.90;;;;;;;;;;4793271;30;20054;-81
2021/11/01 05:05:49;;;;;;;2.75;0.90;;;;;;;;;;4811026;29;20518;-81
2021/11/01 05:08:20;;;;;;;1.73;0.70;;;;;;;;;;4811332;29;20522;-82
2021/11/01 05:10:50;;;;;;;3.47;0.90;;;;;;;;;;4811584;29;20104;-82
2021/11/01 05:13:26;;;;;;;4.68;0.80;;;;;;;;;;4792708;29;20532;-81
2021/11/01 05:16:01;;;;;;;2.53;1.00;;;;;;;;;;4809842;29;20035;-81
2021/11/01 05:18:47;;;;;;;3.40;1.00;;;;;;;;;;4791153;29;20034;-81
2021/11/01 05:24:06;;;;;;;2.55;1.00;;;;;;;;;;4794755;29;20041;-82
2021/11/01 05:29:09;;;;;;;1.35;1.00;;;;;;;;;;4861789;29;20475;-82
2021/11/01 05:31:56;;;;;;;2.22;1.10;;;;;;;;;;4886844;29;20043;-82
2021/11/01 05:34:22;;;;;;;2.80;1.40;;;;;;;;;;4867980;29;20036;-81
2021/11/01 05:36:48;;;;;;;3.72;1.50;;;;;;;;;;4884634;29;20108;-81
2021/11/01 05:39:14;;;;;;;2.92;1.33;;;;;;;;;;4868169;29;20138;-81
2021/11/01 05:41:39;;;;;;;2.80;1.20;;;;;;;;;;4865852;29;20041;-81
2021/11/01 05:44:08;;;;;;;2.45;1.30;;;;;;;;;;4883287;29;20060;-82
2021/11/01 05:46:38;;;;;;;3.15;1.45;;;;;;;;;;4879180;29;20037;-82
2021/11/01 05:49:06;;;;;;;2.15;1.20;;;;;;;;;;4865154;29;20559;-81
2021/11/01 05:51:33;;;;;;;1.83;1.00;;;;;;;;;;4866460;29;20105;-81
2021/11/01 05:54:04;;;;;;;3.55;1.15;;;;;;;;;;4873478;29;20029;-81
2021/11/01 06:02:25;;;;;;;3.25;1.23;;;;;;;;;;4876786;29;20029;-81
2021/11/01 06:08:23;;;;;;;3.90;1.35;;;;;;;;;;4877812;29;20105;-82
2021/11/01 06:13:43;;;;;;;2.45;1.05;;;;;;;;;;4833924;29;20046;-82
2021/11/01 06:17:08;;;;;;;1.45;0.98;;;;;;;;;;4836169;29;20042;-82
2021/11/01 06:26:57;;;;;;;1.67;0.80;;;;;;;;;;4804141;30;20096;-83
2021/11/01 06:40:31;;;;;;;2.00;0.80;;;;;;;;;;4806226;30;20043;-83
2021/11/01 07:14:23;;;;;;;4.20;1.33;;;;;;;;;;4764979;29;20075;-82
2021/11/01 08:40:42;;;;;;;3.13;1.85;;;;;;;;;;4793031;29;20034;-81
2021/11/01 08:43:17;;;;;;;2.90;2.05;;;;;;;;;;4799086;29;20511;-80
2021/11/01 08:46:15;;;;;;;3.28;2.05;;;;;;;;;;4802435;29;20300;-80
2021/11/01 08:48:50;;;;;;;2.78;2.13;;;;;;;;;;4803783;29;20481;-79
2021/11/01 09:10:05;;;;;;;13.68;9.63;;;;;;;;;;4830656;29;20522;-80
2021/11/01 10:28:05;;;;;;;2.58;1.40;;;;;;;;;;5936390;23;20050;31
2021/11/01 10:30:32;;;;;;;2.60;1.90;;;;;;;;;;4838863;29;20046;-81
2021/11/01 10:33:03;;;;;;;2.53;1.20;;;;;;;;;;4843500;29;20049;-80
2021/11/01 10:35:36;;;;;;;3.40;1.30;;;;;;;;;;4847336;29;20049;-80
2021/11/01 10:40:57;;;;;;;2.00;1.10;;;;;;;;;;4846529;29;20411;-81
2021/11/01 11:13:25;;;;;;;2.40;1.35;;;;;;;;;;4852644;29;20065;-81
2021/11/01 11:15:55;;;;;;;1.45;0.82;;;;;;;;;;4859260;29;20030;-80
2021/11/01 11:29:58;;;;;;;0.60;0.60;;;;;;;;;;4808559;29;20051;-81
2021/11/01 11:51:18;;;;;;;1.95;0.80;;;;;;;;;;4731408;30;20109;-83
2021/11/01 11:54:07;;;;;;;4.93;1.10;;;;;;;;;;4737910;30;20081;-83
2021/11/01 12:01:51;;;;;;;1.88;1.00;;;;;;;;;;5163737;23;20065;-82
2021/11/01 12:08:30;;;;;;;3.28;1.55;;;;;;;;;;4895710;29;20061;-82
2021/11/01 12:12:14;;;;;;;3.63;1.40;;;;;;;;;;4838458;29;20034;-83
2021/11/01 12:21:00;;;;;;;5.18;1.40;;;;;;;;;;4855341;29;20318;-83
2021/11/01 12:23:54;;;;;;;3.72;1.40;;;;;;;;;;4854559;29;20125;-82
2021/11/01 12:26:56;;;;;;;3.22;1.33;;;;;;;;;;4855484;29;20037;-83
2021/11/01 12:30:23;;;;;;;5.28;1.63;;;;;;;;;;4851551;29;20042;-83
2021/11/01 12:36:36;;;;;;;2.70;1.13;;;;;;;;;;4774514;30;20096;-81
2021/11/01 12:39:20;;;;;;;2.95;1.20;;;;;;;;;;4759916;30;20399;-80
2021/11/01 12:58:41;;;;;;;2.97;1.45;;;;;;;;;;4779299;30;20023;-81
2021/11/01 13:01:12;;;;;;;2.80;1.50;;;;;;;;;;4785123;30;20075;-78
2021/11/01 13:19:32;;;;;;;2.67;1.50;;;;;;;;;;4787092;30;20179;-82
2021/11/01 13:22:25;;;;;;;3.25;1.10;;;;;;;;;;4805410;29;20076;-82
2021/11/01 13:25:21;;;;;;;4.03;1.58;;;;;;;;;;4806786;29;20062;-82
2021/11/01 13:41:07;;;;;;;3.22;1.00;;;;;;;;;;5183076;23;20072;-87
2021/11/01 14:19:07;;;;;;;5.13;1.52;;;;;;;;;;5485611;23;20080;-83
2021/11/01 15:09:22;;;;;;;3.55;1.20;;;;;;;;;;4693401;30;20103;-84
2021/11/01 15:34:00;;;;;;;2.85;1.20;;;;;;;;;;4728295;30;20068;-83
2021/11/01 20:05:29;;;;;;;9.75;7.45;;;;;;;;;;4880373;29;20112;-81
2021/11/01 20:08:29;;;;;;;9.88;7.25;;;;;;;;;;4871060;29;20046;-81
2021/11/01 20:11:51;;;;;;;10.18;6.95;;;;;;;;;;4867518;29;20129;-82
2021/11/01 20:14:35;;;;;;;9.77;6.93;;;;;;;;;;4865902;29;20053;-80
2021/11/01 21:27:01;;;;;;;8.82;6.78;;;;;;;;;;4878338;29;20048;-80
2021/11/01 21:29:28;;;;;;;9.68;7.65;;;;;;;;;;4878804;29;20123;-79
2021/11/01 21:31:56;;;;;;;9.45;6.30;;;;;;;;;;4868995;29;20052;-80
2021/11/01 21:34:32;;;;;;;10.82;6.13;;;;;;;;;;4860644;29;20126;-81
2021/11/01 21:37:00;;;;;;;7.40;5.80;;;;;;;;;;4879368;29;20053;-79
2021/11/01 21:39:26;;;;;;;19.70;14.95;;;;;;;;;;4879281;29;20029;-79
2021/11/01 21:41:52;;;;;;;14.27;10.45;;;;;;;;;;4872046;29;20029;-79
2021/11/01 21:44:17;;;;;;;10.10;6.40;;;;;;;;;;4876344;29;20037;-80
2021/11/01 21:46:42;;;;;;;8.85;6.43;;;;;;;;;;4876607;29;20050;-80
2021/11/01 21:49:09;;;;;;;7.00;5.82;;;;;;;;;;4877864;29;20037;-80
2021/11/01 21:51:40;;;;;;;10.35;6.45;;;;;;;;;;4871771;29;20519;-80
2021/11/01 22:10:30;;;;;;;11.40;7.65;;;;;;;;;;4858610;29;20170;-80
2021/11/01 22:18:32;;;;;;;10.13;6.43;;;;;;;;;;4869637;29;20048;-79
2021/11/01 22:21:11;;;;;;;7.80;4.88;;;;;;;;;;4853974;29;20104;-80
2021/11/01 22:48:13;;;;;;;8.05;6.25;;;;;;;;;;4821424;29;20135;-79
2021/11/01 22:55:56;;;;;;;7.25;5.10;;;;;;;;;;4823779;29;20046;-80
2021/11/01 22:58:25;;;;;;;6.47;5.35;;;;;;;;;;4813720;29;20113;-79
2021/11/01 23:01:00;;;;;;;11.52;4.72;;;;;;;;;;4808820;29;20099;-81
2021/11/01 23:03:45;;;;;;;5.90;4.72;;;;;;;;;;4805729;29;20047;-80
2021/11/01 23:06:57;;;;;;;6.72;4.95;;;;;;;;;;4820788;29;20035;-81
2021/11/01 23:31:36;;;;;;;7.72;5.15;;;;;;;;;;4854667;29;20072;-80
2021/11/01 23:34:06;;;;;;;7.13;4.53;;;;;;;;;;4852900;29;20037;-80
2021/11/01 23:36:32;;;;;;;7.63;3.47;;;;;;;;;;4856852;29;20054;-80
2021/11/01 23:38:59;;;;;;;5.78;3.92;;;;;;;;;;4843013;29;20037;-80
2021/11/01 23:41:25;;;;;;;6.45;3.40;;;;;;;;;;4832466;29;20032;-80
2021/11/01 23:43:52;;;;;;;6.57;3.85;;;;;;;;;;4851878;29;20113;-80
2021/11/01 23:46:22;;;;;;;4.82;3.05;;;;;;;;;;4824527;29;20038;-80
2021/11/01 23:48:49;;;;;;;7.07;3.22;;;;;;;;;;4841727;29;20495;-80
2021/11/01 23:51:19;;;;;;;6.28;3.72;;;;;;;;;;4853769;29;20042;-79
2021/11/01 23:53:59;;;;;;;6.55;4.10;;;;;;;;;;4857110;29;20066;-80
2021/11/01 23:56:27;;;;;;;9.60;4.15;;;;;;;;;;4851506;29;20076;-80
2021/11/01 23:58:52;;;;;;;6.35;3.40;;;;;;;;;;4853146;29;20038;-80
